Startpagina
METAR-TAF:

METAR-TAF

Vliegvelden :

Coral Harbour, Nunavut, Canada

breedte: 64-12N, lengte: 083-22W, hoogte: 64 m

Actueel weer

Dit bericht is 1 uur en het 11 minuten geleden gemaakt, om 09:00 UTC
Wind 18 kt uit het noorden
Temperatuur -15°C
Vochtigheid 60%
Druk 1031 hPa
Zicht: 24.1 km
Onbewolkt
Lage stuifsneeuw

METAR: CYZS 050900Z 01018KT 15SM DRSN SKC M15/M21 A3044 RMK SLP317

Tijdstip: 06:11 (10:11 UTC)

Verwachting

Dit bericht is 3 uur en het 33 minuten geleden gemaakt, om 06:38 UTC
Verwachting geldig van 05 om 07 UTC tot 05 om 19 UTC
Wind 15 kt uit het noordoosten
Zicht: 10 km
Onbewolkt
Wijzigt naar
van 05 om 11 UTC tot 05 om 13 UTC
Wind 20 kt uit het noordnoordoosten met uitschieters tot 30 kt

TAF: CYZS 050638Z 0507/0519 04015KT P6SM SKC BECMG 0511/0513 02020G30KT RMK NXT FCST BY 051300Z

Waarnemingen en weersverwachtingen van meer dan 4000 vliegvelden (METAR en TAF).

De beschikbare stations zijn de gele en rode punten op de kaart.

Ga met uw muis naar het station om de naam te zien.

Klik dan om waarnemingen en weersverwachtingen te zien.

kaart wijzigen: klik op de groene knoppen met een zwart kruis om in te zoomen, op de groene knop met een streepje om uit te zoomen of op de groene pijlen voor aangrenzende kaarten.


METAR-TAF: